Silver Lake, Michigan
Current Conditions -  °F | °C
As of 9:15 PM on Friday 24 Oct 2014 (Local Time) from KLDM Reporting Station
Overcast Overcast  
Wind Chill: 48°   Ceiling: 900
Heat Index: 49°   Visibility: 7mi
Dew Point: 47°   Wind: 5mph
Humidity: 94%   Direction: 190°S
Pressure: 29.94"   Gusts: NA
Location:  43.6851°N, 86.4584°W
Report Text: KLDM 250115Z AUTO 19004KT 7SM OVC009 10/09 A2994 RMK AO2 T00960086
Loading
Personal Weather Stations






























Interactive Weather Map
Tropical Storm Tracking
New forecast layout! Learn more

10-Day Weather Forecast

Advertisements
Track Severe Weather on mobile